Halle Kroellwitz, Germany

7:08 PM CEST on August 28, 2016 (GMT +0200)
Trothaer Straße | | Change Station

Elev 278 ft 51.51 °N, 11.96 °E | Updated 4 minutes ago

Thunderstorm
Thunderstorm
90.7 °F
Feels Like 90 °F
N
1.2
Wind Variable Wind from SSE
Gusts 3.7 mph

Today
High -- | Low -- °F
--% Chance of Precip.
Yesterday
High -- | Low -- °F
Precip. -- in
Pressure 29.86 in
Visibility 6.2 miles
Clouds Mostly Cloudy 6000 ft
Heat Index 90 °F
Dew Point 61 °F
Humidity 36%
Rainfall 0.00 in
Snow Depth Not available.
6:18 AM 8:06 PM
Waning Crescent, 14% visible
METAR EDDP 281650Z 19011KT 160V220 9999 TS VCSH BKN060CB 32/11 Q1011 TEMPO TSRA
Pressure 29.86 in
Visibility 6.2 miles
Clouds Mostly Cloudy 6000 ft
Heat Index 90 °F
Dew Point 61 °F
Humidity 36%
Rainfall 0.00 in
Snow Depth Not available.
6:18 AM 8:06 PM
Waning Crescent, 14% visible
METAR EDDP 281650Z 19011KT 160V220 9999 TS VCSH BKN060CB 32/11 Q1011 TEMPO TSRA

10-Day Weather Forecast

×

Almanac

Astronomy

Aug. 28, 2016 Rise Set
Actual Time
Civil Twilight
Nautical Twilight
Astronomical Twilight
Moon
Length of Visible Light
Length of Day
Tomorrow will be .
, % of the Moon is Illuminated

Today's Extremes

Country Highs Country Lows

Community

WunderPhotos

Upload Photos

1,935,627 photos uploaded!

WunderBlog® & News

Nearby

Air Quality

  Air Quality AQ Index Pollutant
Not available.

Snow Depth

Station Depth Elevation

Earthquake Activity

City Distance Mag. Time & Date
Minimum magnitude displayed is 2.5.

Coastal Water Temperatures

Place Temperature

Stations

Nearby Weather Stations

Station Location Temp. Windchill Dew Point Humidity Wind Precip. Elev Updated Type